Egg Harbor, WI (54209)

5:29 PM CDT on August 23, 2016 (GMT -0500)
Egg Harbor | | Change Station
Active Advisory: Beach Hazard Statement

Elev 771 ft 45.00 °N, 87.31 °W | Updated 21 seconds ago

Clear
Clear
75.4 °F
Feels Like 77 °F
N
17.7
Wind Variable Wind from South
Gusts 19.9 mph

Today
High -- | Low -- °F
--% Chance of Precip.
Yesterday
High -- | Low -- °F
Precip. -- in
Pressure 30.12 in
Visibility 10.0 miles
Clouds Clear
Heat Index 77 °F
Dew Point 62 °F
Humidity 64%
Rainfall 0.00 in
Snow Depth Not available.
6:01 AM 7:41 PM
Waning Gibbous, 64% visible
METAR KSUE 232156Z AUTO 18015G19KT 10SM CLR 24/18 A3008 RMK AO2 SLP198 T02440178
Pressure 30.12 in
Visibility 10.0 miles
Clouds Clear
Heat Index 77 °F
Dew Point 62 °F
Humidity 64%
Rainfall 0.00 in
Snow Depth Not available.
6:01 AM 7:41 PM
Waning Gibbous, 64% visible
METAR KSUE 232156Z AUTO 18015G19KT 10SM CLR 24/18 A3008 RMK AO2 SLP198 T02440178

10-Day Weather Forecast

Almanac

Astronomy

Aug. 23, 2016 Rise Set
Actual Time
Civil Twilight
Nautical Twilight
Astronomical Twilight
Moon
Length of Visible Light
Length of Day
Tomorrow will be .
, % of the Moon is Illuminated

Today's Extremes

State Highs State Lows

Community

WunderPhotos

Upload Photos

1,934,476 photos uploaded!

WunderBlog® & News

Nearby

Air Quality

  Air Quality AQ Index Pollutant
Not available.

Snow Depth

Station Depth Elevation

Earthquake Activity

City Distance Mag. Time & Date
Minimum magnitude displayed is 2.5.

Coastal Water Temperatures

Place Temperature

Stations

Nearby Weather Stations

Station Location Temp. Windchill Dew Point Humidity Wind Precip. Elev Updated Type
                   

Watches & Warnings

Beach Hazard Statement
Issued: 10:22 AM CDT Aug. 23, 2016 – National Weather Service

... Beach hazards statement remains in effect through Wednesday
evening...

* high wave action... strong currents and dangerous swimming
conditions expected.

* Locations...

Beaches of Door County including Rock Island state beach...
Baileys Harbor beaches... and Whitefish Dunes Beach.

Beaches of Kewaunee County including Cresent Beach and city of
Kewaunee beach.

Beaches of Manitowoc County including Point Beach... neshotah
beach... and red arrow beach.

* Strong south winds will bring waves of 3 to 7 feet today
through Wednesday evening to the Lake Michigan shore of
northeast Wisconsin... resulting in dangerous swimming
conditions.

Precautionary/preparedness actions...

High wave action makes swimming difficult as waves on the Great
Lakes occur in rapid succession. High wave action also leads to
strong currents.




Mpc